Terminal Aerodrome Forecast
Issued by NWS

Home | Current Version | Previous Version | Text Only | Print | Product List | Glossary On
Versions: 1 2 3 4 5 6 7 8 9 10 11 12 13 14 15 16 17 18 19 20 21 22 23 24 25 26
919
FTUS45 KCYS 130520
TAFRWL
TAF
KRWL 130520Z 1306/1406 24012KT P6SM SCT070
     FM131600 24020G30KT P6SM BKN070
     FM131800 25028G45KT P6SM SCT070
     FM140200 27020G30KT P6SM SCT070=

USA.gov is the U.S. government's official web portal to all federal, state and local government web resources and services.